Clipper Titan — C6V2055 — position and weather

sailwx.info

Track history (hours):
 
Tides and Currents Weather Stations Pressure Air Temp Water Temp Dewpoint Dewpoint Depression Visibility Wind Speed Wind Dir Waves Ship Positions

Clipper Titan

Last reported at 2017-Jan-10 15:20 UTC. Time now 2017-Jan-20 05:42 UTC.
Position S 22°51' W 041°26'.
Warning: this ship's position is 9 days out of date.

Length 179 m; draft 6.2 m.

Type: Cargo ship. MMSI: 311008200.

Date/timePositionNaut miles runAvg speedWind from/ knotsBaromVisibWave heightAir tempDewpointWater temp
2017-Jan-10 15:20S 22°51' W 041°26'7 9.1
2017-Jan-10 14:33S 22°55' W 041°32'10 9.5
2017-Jan-10 13:32S 23°02' W 041°40'4310.0
2017-Jan-10 09:14S 23°23' W 042°21'7 9.6
2017-Jan-10 08:33S 23°25' W 042°27'13 9.6
2017-Jan-10 07:15S 23°29' W 042°40'105 6.2
2017-Jan-09 14:26S 24°08' W 044°27'16611.9
2017-Jan-09 00:26S 23°39' W 041°28'2412.1
2017-Jan-08 22:28S 23°36' W 041°03'1212.7
2017-Jan-08 21:34S 23°33' W 040°50'1312.5
2017-Jan-08 20:33S 23°31' W 040°37'1211.8
2017-Jan-08 19:33S 23°26' W 040°25'1312.3
2017-Jan-08 18:31S 23°16' W 040°16'  
Track history (hours):
 
Tides and Currents Weather Stations Pressure Air Temp Water Temp Dewpoint Dewpoint Depression Visibility Wind Speed Wind Dir Waves Ship Positions

Clipper Titan

Last reported at 2017-Jan-10 15:20 UTC. Time now 2017-Jan-20 05:42 UTC.
Position S 22°51' W 041°26'.
Warning: this ship's position is 9 days out of date.

Length 179 m; draft 6.2 m.

Type: Cargo ship. MMSI: 311008200.

Date/timePositionNaut miles runAvg speedWind from/ knotsBaromVisibWave heightAir tempDewpointWater temp
2017-Jan-10 15:20S 22°51' W 041°26'7 9.1
2017-Jan-10 14:33S 22°55' W 041°32'10 9.5
2017-Jan-10 13:32S 23°02' W 041°40'4310.0
2017-Jan-10 09:14S 23°23' W 042°21'7 9.6
2017-Jan-10 08:33S 23°25' W 042°27'13 9.6
2017-Jan-10 07:15S 23°29' W 042°40'105 6.2
2017-Jan-09 14:26S 24°08' W 044°27'16611.9
2017-Jan-09 00:26S 23°39' W 041°28'2412.1
2017-Jan-08 22:28S 23°36' W 041°03'1212.7
2017-Jan-08 21:34S 23°33' W 040°50'1312.5
2017-Jan-08 20:33S 23°31' W 040°37'1211.8
2017-Jan-08 19:33S 23°26' W 040°25'1312.3
2017-Jan-08 18:31S 23°16' W 040°16'  

Dump ship's entire track history